Time;durP1;ratioP1;P1;durP2;ratioP2;P2;SDS_P1;SDS_P2;PMS_P1;PMS_P2;Temp;Humidity;BMP_temperature;BMP_pressure;BME280_temperature;BME280_humidity;BME280_pressure;Samples;Min_cycle;Max_cycle;Signal;HPM_P1;HPM_P2
2022/04/06 00:01:00;;;;;;;3.45;2.00;;;;;;;;;;6342251;28;20496;-75
2022/04/06 00:04:05;;;;;;;2.80;2.00;;;;;;;;;;6343039;28;20047;-73
2022/04/06 00:07:10;;;;;;;2.95;2.13;;;;;;;;;;6341801;28;20058;-74
2022/04/06 00:10:15;;;;;;;3.67;2.10;;;;;;;;;;6341426;28;20046;-74
2022/04/06 00:13:18;;;;;;;3.45;2.13;;;;;;;;;;6341873;28;20043;-74
2022/04/06 00:16:22;;;;;;;7.00;2.67;;;;;;;;;;6341891;28;20047;-75
2022/04/06 00:19:26;;;;;;;4.80;3.05;;;;;;;;;;6342577;28;20505;-75
2022/04/06 00:22:29;;;;;;;4.45;2.45;;;;;;;;;;6343440;28;20044;-75
2022/04/06 00:25:34;;;;;;;4.07;2.78;;;;;;;;;;6342804;28;20173;-75
2022/04/06 00:28:37;;;;;;;4.05;2.67;;;;;;;;;;6342740;28;20039;-74
2022/04/06 00:31:39;;;;;;;4.68;2.70;;;;;;;;;;6342484;28;20046;-75
2022/04/06 00:38:06;;;;;;;5.60;3.15;;;;;;;;;;6342482;28;20051;-76
2022/04/06 00:41:10;;;;;;;2.80;2.47;;;;;;;;;;6340746;28;20044;-75
2022/04/06 00:44:16;;;;;;;4.50;3.10;;;;;;;;;;6341502;28;20047;-75
2022/04/06 00:47:19;;;;;;;4.55;3.33;;;;;;;;;;6342032;28;20413;-76
2022/04/06 00:50:24;;;;;;;5.65;3.40;;;;;;;;;;6341191;28;20161;-76
2022/04/06 00:53:27;;;;;;;3.97;2.70;;;;;;;;;;6340849;28;20044;-75
2022/04/06 00:56:30;;;;;;;4.35;3.17;;;;;;;;;;6341124;28;20165;-74
2022/04/06 00:59:33;;;;;;;4.70;3.00;;;;;;;;;;6341420;28;20048;-75
2022/04/06 01:02:36;;;;;;;4.50;2.50;;;;;;;;;;6341737;28;20050;-75
2022/04/06 01:05:44;;;;;;;4.55;2.78;;;;;;;;;;6340814;28;20052;-75
2022/04/06 01:08:47;;;;;;;6.03;3.50;;;;;;;;;;6342916;28;20149;-76
2022/04/06 01:11:52;;;;;;;3.65;2.70;;;;;;;;;;6340780;28;20296;-75
2022/04/06 01:14:55;;;;;;;3.97;2.20;;;;;;;;;;6342313;28;20058;-75
2022/04/06 01:17:58;;;;;;;4.15;2.05;;;;;;;;;;6340747;28;20043;-74
2022/04/06 01:21:05;;;;;;;4.03;2.30;;;;;;;;;;6340712;28;20062;-75
2022/04/06 01:24:12;;;;;;;4.85;2.40;;;;;;;;;;6341552;28;20055;-75
2022/04/06 01:27:15;;;;;;;6.00;2.90;;;;;;;;;;6342109;28;20058;-74
2022/04/06 01:30:18;;;;;;;4.25;3.05;;;;;;;;;;6340703;28;20043;-75
2022/04/06 01:33:23;;;;;;;3.90;2.10;;;;;;;;;;6341699;28;20044;-74
2022/04/06 01:36:26;;;;;;;3.92;1.80;;;;;;;;;;6340310;28;20486;-74
2022/04/06 01:39:31;;;;;;;4.15;2.40;;;;;;;;;;6340763;28;20048;-74
2022/04/06 01:42:36;;;;;;;2.40;1.95;;;;;;;;;;6341986;28;20204;-75
2022/04/06 01:45:39;;;;;;;3.50;2.00;;;;;;;;;;6341144;28;20504;-74
2022/04/06 01:52:14;;;;;;;2.65;1.95;;;;;;;;;;6341592;28;20050;-75
2022/04/06 01:55:18;;;;;;;4.80;2.47;;;;;;;;;;6340592;28;20048;-74
2022/04/06 01:58:21;;;;;;;3.72;2.47;;;;;;;;;;6341298;28;20104;-74
2022/04/06 02:01:24;;;;;;;3.10;2.55;;;;;;;;;;6341612;28;20039;-74
2022/04/06 02:04:27;;;;;;;2.30;2.10;;;;;;;;;;6341694;28;20055;-75
2022/04/06 02:07:33;;;;;;;2.67;2.25;;;;;;;;;;6339690;28;20040;-74
2022/04/06 02:10:38;;;;;;;3.90;2.70;;;;;;;;;;6341871;28;20173;-75
2022/04/06 02:13:41;;;;;;;2.85;2.45;;;;;;;;;;6341613;28;20047;-75
2022/04/06 02:16:44;;;;;;;3.65;2.80;;;;;;;;;;6342421;28;20052;-75
2022/04/06 02:19:47;;;;;;;4.38;2.70;;;;;;;;;;6345650;28;20035;-74
2022/04/06 02:22:50;;;;;;;4.55;2.58;;;;;;;;;;6345750;28;20048;-75
2022/04/06 02:25:56;;;;;;;3.67;2.53;;;;;;;;;;6346073;28;20051;-73
2022/04/06 02:29:00;;;;;;;2.95;2.17;;;;;;;;;;6344988;27;20116;-75
2022/04/06 02:32:03;;;;;;;3.50;2.47;;;;;;;;;;6345909;28;20061;-75
2022/04/06 02:35:06;;;;;;;5.40;3.15;;;;;;;;;;6344108;28;20063;-75
2022/04/06 02:38:09;;;;;;;3.70;2.75;;;;;;;;;;6343783;28;20032;-75
2022/04/06 02:41:14;;;;;;;2.97;2.47;;;;;;;;;;6344196;28;20044;-75
2022/04/06 02:44:19;;;;;;;3.65;2.70;;;;;;;;;;6345293;28;20280;-74
2022/04/06 02:47:22;;;;;;;4.10;2.42;;;;;;;;;;6345258;28;20055;-73
2022/04/06 02:50:25;;;;;;;4.55;2.92;;;;;;;;;;6344934;28;20047;-73
2022/04/06 02:53:28;;;;;;;9.68;4.82;;;;;;;;;;6344139;28;20043;-73
2022/04/06 02:56:32;;;;;;;3.63;2.58;;;;;;;;;;6344099;28;20043;-76
2022/04/06 02:59:37;;;;;;;3.50;2.47;;;;;;;;;;6344391;28;20472;-73
2022/04/06 03:02:40;;;;;;;3.23;2.60;;;;;;;;;;6345584;28;20494;-75
2022/04/06 03:05:43;;;;;;;4.50;3.22;;;;;;;;;;6343783;28;20088;-74
2022/04/06 03:08:46;;;;;;;4.43;3.00;;;;;;;;;;6343462;28;20043;-75
2022/04/06 03:11:50;;;;;;;3.83;2.70;;;;;;;;;;6344403;28;20518;-74
2022/04/06 03:14:53;;;;;;;3.13;2.33;;;;;;;;;;6343453;28;20062;-74
2022/04/06 03:17:58;;;;;;;5.10;2.70;;;;;;;;;;6343215;28;20047;-75
2022/04/06 03:21:01;;;;;;;4.15;2.70;;;;;;;;;;6343696;28;20509;-73
2022/04/06 03:24:04;;;;;;;3.38;2.38;;;;;;;;;;6344969;28;20442;-75
2022/04/06 03:27:09;;;;;;;3.38;2.53;;;;;;;;;;6342637;28;20047;-75
2022/04/06 03:30:14;;;;;;;5.70;2.97;;;;;;;;;;6344627;28;20043;-75
2022/04/06 03:33:17;;;;;;;3.83;3.10;;;;;;;;;;6343863;28;20417;-75
2022/04/06 03:36:20;;;;;;;4.85;3.20;;;;;;;;;;6343815;28;20043;-74
2022/04/06 03:39:23;;;;;;;3.45;3.08;;;;;;;;;;6342676;28;20044;-75
2022/04/06 03:42:27;;;;;;;3.72;2.78;;;;;;;;;;6343307;28;20241;-74
2022/04/06 03:45:31;;;;;;;5.43;2.85;;;;;;;;;;6344450;28;20047;-75
2022/04/06 03:48:33;;;;;;;6.50;3.40;;;;;;;;;;6343551;28;20059;-75
2022/04/06 03:51:37;;;;;;;4.68;3.05;;;;;;;;;;6343182;27;20055;-74
2022/04/06 03:54:40;;;;;;;7.05;3.70;;;;;;;;;;6343739;28;20039;-76
2022/04/06 03:57:44;;;;;;;6.95;3.65;;;;;;;;;;6343323;28;20504;-75
2022/04/06 04:00:47;;;;;;;6.47;4.30;;;;;;;;;;6343833;28;20124;-75
2022/04/06 04:03:53;;;;;;;6.57;4.50;;;;;;;;;;6341680;28;20052;-75
2022/04/06 04:06:56;;;;;;;9.35;4.03;;;;;;;;;;6343456;28;20114;-75
2022/04/06 04:10:02;;;;;;;6.72;3.90;;;;;;;;;;6343416;28;20397;-75
2022/04/06 04:13:06;;;;;;;10.68;5.70;;;;;;;;;;6341472;28;20048;-75
2022/04/06 04:16:10;;;;;;;13.93;6.43;;;;;;;;;;6343417;28;20521;-75
2022/04/06 04:19:16;;;;;;;10.88;5.78;;;;;;;;;;6342509;28;20398;-75
2022/04/06 04:22:19;;;;;;;9.63;5.78;;;;;;;;;;6341397;28;20046;-75
2022/04/06 04:25:21;;;;;;;9.63;5.47;;;;;;;;;;6342593;28;20055;-75
2022/04/06 04:28:26;;;;;;;10.07;5.57;;;;;;;;;;6342846;28;20050;-75
2022/04/06 04:31:29;;;;;;;9.95;5.07;;;;;;;;;;6341792;28;20536;-75
2022/04/06 04:34:32;;;;;;;8.77;4.82;;;;;;;;;;6340833;28;20048;-75
2022/04/06 04:37:35;;;;;;;9.55;5.32;;;;;;;;;;6341900;28;20039;-75
2022/04/06 04:40:38;;;;;;;10.05;5.40;;;;;;;;;;6338843;28;20426;-75
2022/04/06 04:43:42;;;;;;;8.75;4.90;;;;;;;;;;6337989;28;20040;-75
2022/04/06 04:46:45;;;;;;;6.47;3.92;;;;;;;;;;6337976;28;20063;-75
2022/04/06 04:49:50;;;;;;;6.87;4.40;;;;;;;;;;6339576;28;20036;-75
2022/04/06 04:52:53;;;;;;;9.13;4.50;;;;;;;;;;6339148;28;20284;-75
2022/04/06 04:55:56;;;;;;;7.45;3.78;;;;;;;;;;6341767;28;20072;-75
2022/04/06 04:59:03;;;;;;;5.72;3.80;;;;;;;;;;6340947;28;20378;-75
2022/04/06 05:02:06;;;;;;;8.63;3.70;;;;;;;;;;6340615;28;20127;-74
2022/04/06 05:05:10;;;;;;;7.75;4.32;;;;;;;;;;6339976;28;20048;-75
2022/04/06 05:08:13;;;;;;;6.03;3.65;;;;;;;;;;6340689;28;20047;-75
2022/04/06 05:11:16;;;;;;;6.47;3.53;;;;;;;;;;6341767;28;20054;-75
2022/04/06 05:14:20;;;;;;;7.78;3.22;;;;;;;;;;6340533;28;20615;-74
2022/04/06 05:17:23;;;;;;;5.50;3.22;;;;;;;;;;6341047;28;20046;-74
2022/04/06 05:20:26;;;;;;;5.38;3.60;;;;;;;;;;6340411;28;20048;-74
2022/04/06 05:23:29;;;;;;;5.15;3.47;;;;;;;;;;6340572;28;20265;-75
2022/04/06 05:26:34;;;;;;;4.15;3.13;;;;;;;;;;6339510;28;20469;-75
2022/04/06 05:29:39;;;;;;;4.95;3.20;;;;;;;;;;6340711;28;20485;-75
2022/04/06 05:32:42;;;;;;;4.68;2.90;;;;;;;;;;6341200;28;20044;-74
2022/04/06 05:35:45;;;;;;;5.03;2.90;;;;;;;;;;6341235;28;20043;-75
2022/04/06 05:38:48;;;;;;;6.63;3.33;;;;;;;;;;6341133;28;20044;-75
2022/04/06 05:41:51;;;;;;;4.82;3.00;;;;;;;;;;6340260;28;20050;-75
2022/04/06 05:44:57;;;;;;;4.28;3.05;;;;;;;;;;6341837;28;20050;-75
2022/04/06 05:48:01;;;;;;;3.60;2.97;;;;;;;;;;6340474;28;20425;-75
2022/04/06 05:51:05;;;;;;;4.63;3.40;;;;;;;;;;6343737;28;20050;-75
2022/04/06 05:54:08;;;;;;;6.00;3.35;;;;;;;;;;6346349;28;20044;-76
2022/04/06 05:57:11;;;;;;;5.57;3.40;;;;;;;;;;6345462;28;20052;-74
2022/04/06 06:00:16;;;;;;;5.85;3.70;;;;;;;;;;6345963;28;20040;-74
2022/04/06 06:03:19;;;;;;;4.38;3.08;;;;;;;;;;6346952;28;20040;-73
2022/04/06 06:06:22;;;;;;;4.75;3.08;;;;;;;;;;6344779;28;20047;-74
2022/04/06 06:09:28;;;;;;;5.13;3.70;;;;;;;;;;6343955;28;20062;-73
2022/04/06 06:12:31;;;;;;;6.50;3.42;;;;;;;;;;6344577;28;20043;-75
2022/04/06 06:15:36;;;;;;;4.28;3.22;;;;;;;;;;6345769;28;20337;-73
2022/04/06 06:18:41;;;;;;;4.93;2.92;;;;;;;;;;6343882;28;20432;-73
2022/04/06 06:21:44;;;;;;;4.20;2.88;;;;;;;;;;6345717;28;20088;-75
2022/04/06 06:24:47;;;;;;;4.70;2.85;;;;;;;;;;6345856;28;20050;-74
2022/04/06 06:27:50;;;;;;;4.00;2.45;;;;;;;;;;6345687;28;20043;-75
2022/04/06 06:30:54;;;;;;;4.55;2.80;;;;;;;;;;6345277;28;20086;-75
2022/04/06 06:33:58;;;;;;;5.82;2.70;;;;;;;;;;6344183;28;20040;-74
2022/04/06 06:37:01;;;;;;;3.47;2.60;;;;;;;;;;6344093;28;20070;-75
2022/04/06 06:40:05;;;;;;;6.28;2.83;;;;;;;;;;6342846;28;20065;-74
2022/04/06 06:43:10;;;;;;;3.25;2.33;;;;;;;;;;6343860;28;20044;-74
2022/04/06 06:46:16;;;;;;;5.75;2.92;;;;;;;;;;6344834;28;20048;-74
2022/04/06 06:49:20;;;;;;;8.88;3.17;;;;;;;;;;6343579;28;20163;-75
2022/04/06 06:52:23;;;;;;;4.80;2.88;;;;;;;;;;6343509;28;20047;-75
2022/04/06 06:55:26;;;;;;;6.20;2.70;;;;;;;;;;6345096;28;20062;-74
2022/04/06 06:58:29;;;;;;;5.25;3.00;;;;;;;;;;6345016;28;20122;-74
2022/04/06 07:01:35;;;;;;;5.53;2.95;;;;;;;;;;6342754;28;20489;-73
2022/04/06 07:04:40;;;;;;;8.05;3.10;;;;;;;;;;6344806;28;20051;-74
2022/04/06 07:07:53;;;;;;;6.85;3.47;;;;;;;;;;6344530;28;20066;-74
2022/04/06 07:10:57;;;;;;;5.93;2.97;;;;;;;;;;6344690;27;20383;-75
2022/04/06 07:14:00;;;;;;;5.90;2.70;;;;;;;;;;6344681;28;20463;-73
2022/04/06 07:17:05;;;;;;;5.85;3.05;;;;;;;;;;6343277;28;20568;-75
2022/04/06 07:20:11;;;;;;;8.00;4.13;;;;;;;;;;6343526;28;20044;-74
2022/04/06 07:23:14;;;;;;;14.55;6.50;;;;;;;;;;6344067;28;20119;-74
2022/04/06 07:26:17;;;;;;;16.15;8.80;;;;;;;;;;6343239;28;20051;-73
2022/04/06 07:29:22;;;;;;;14.70;8.57;;;;;;;;;;6343073;28;20043;-74
2022/04/06 07:32:28;;;;;;;17.42;8.73;;;;;;;;;;6343433;28;20052;-75
2022/04/06 07:35:32;;;;;;;15.13;8.93;;;;;;;;;;6342474;28;20070;-74
2022/04/06 07:38:35;;;;;;;14.27;7.75;;;;;;;;;;6342305;28;20043;-75
2022/04/06 07:41:38;;;;;;;16.35;8.40;;;;;;;;;;6344286;28;20051;-75
2022/04/06 07:44:43;;;;;;;13.73;7.40;;;;;;;;;;6343160;28;20390;-75
2022/04/06 07:47:48;;;;;;;13.90;7.47;;;;;;;;;;6343979;28;20128;-74
2022/04/06 07:50:51;;;;;;;14.77;7.68;;;;;;;;;;6343896;28;20039;-75
2022/04/06 07:53:54;;;;;;;17.38;8.25;;;;;;;;;;6343344;28;20045;-74
2022/04/06 07:56:57;;;;;;;15.80;8.60;;;;;;;;;;6343814;28;20482;-75
2022/04/06 08:00:01;;;;;;;15.77;8.93;;;;;;;;;;6343152;28;20062;-74
2022/04/06 08:03:08;;;;;;;15.95;8.88;;;;;;;;;;6343353;28;20071;-76
2022/04/06 08:06:11;;;;;;;20.10;10.73;;;;;;;;;;6331645;28;20111;-75
2022/04/06 08:09:14;;;;;;;20.65;11.05;;;;;;;;;;6316888;28;20047;-75
2022/04/06 08:12:17;;;;;;;19.63;11.18;;;;;;;;;;6319081;28;20084;-74
2022/04/06 08:15:22;;;;;;;19.17;10.13;;;;;;;;;;6315183;28;20067;-75
2022/04/06 08:18:28;;;;;;;;;;;;;;;;;;6317457;28;20052;-79
2022/04/06 08:21:42;;;;;;;16.58;8.60;;;;;;;;;;6317346;28;20373;-75
2022/04/06 08:24:44;;;;;;;14.93;7.93;;;;;;;;;;6318127;28;20044;-74
2022/04/06 08:27:47;;;;;;;15.43;7.93;;;;;;;;;;6316141;28;20039;-74
2022/04/06 08:30:50;;;;;;;13.80;7.22;;;;;;;;;;6316543;28;20048;-74
2022/04/06 08:33:53;;;;;;;12.70;6.75;;;;;;;;;;6317737;28;20059;-75
2022/04/06 08:36:57;;;;;;;10.15;6.35;;;;;;;;;;6316851;28;20054;-73
2022/04/06 08:40:01;;;;;;;13.77;5.82;;;;;;;;;;6317649;28;20044;-75
2022/04/06 08:43:11;;;;;;;13.30;6.93;;;;;;;;;;6316447;28;20047;-75
2022/04/06 08:46:16;;;;;;;11.70;6.25;;;;;;;;;;6314599;28;20067;-75
2022/04/06 08:49:20;;;;;;;9.68;5.60;;;;;;;;;;6312472;28;20055;-75
2022/04/06 08:52:24;;;;;;;10.07;5.25;;;;;;;;;;6314669;28;20044;-75
2022/04/06 08:55:47;;;;;;;10.35;4.90;;;;;;;;;;6315898;28;20052;-75
2022/04/06 08:58:50;;;;;;;10.88;5.15;;;;;;;;;;6312714;28;20048;-73
2022/04/06 09:01:57;;;;;;;7.85;5.18;;;;;;;;;;6312910;28;20040;-75
2022/04/06 09:05:02;;;;;;;10.05;5.13;;;;;;;;;;6314157;28;20048;-75
2022/04/06 09:08:08;;;;;;;9.75;4.95;;;;;;;;;;6313367;28;20136;-75
2022/04/06 09:11:15;;;;;;;8.07;4.70;;;;;;;;;;6316535;28;20105;-75
2022/04/06 09:14:29;;;;;;;8.23;4.55;;;;;;;;;;6317385;28;20501;-74
2022/04/06 09:17:34;;;;;;;9.50;5.00;;;;;;;;;;6315690;28;20402;-74
2022/04/06 09:20:37;;;;;;;6.75;4.05;;;;;;;;;;6315714;28;20182;-74
2022/04/06 09:23:42;;;;;;;10.90;5.00;;;;;;;;;;6315649;28;20047;-73
2022/04/06 09:26:55;;;;;;;6.40;4.23;;;;;;;;;;6319767;28;20414;-75
2022/04/06 09:29:59;;;;;;;9.70;4.30;;;;;;;;;;6322300;28;20048;-74
2022/04/06 09:33:02;;;;;;;5.53;3.78;;;;;;;;;;6321071;28;20411;-74
2022/04/06 09:36:20;;;;;;;8.60;5.03;;;;;;;;;;6320640;28;20085;-75
2022/04/06 09:39:38;;;;;;;8.02;4.32;;;;;;;;;;6321845;28;20127;-74
2022/04/06 09:42:50;;;;;;;8.00;4.32;;;;;;;;;;6322137;28;20474;-74
2022/04/06 09:49:18;;;;;;;8.05;4.78;;;;;;;;;;6320206;28;20117;-75
2022/04/06 09:52:22;;;;;;;7.57;5.13;;;;;;;;;;6322787;28;20127;-76
2022/04/06 09:55:25;;;;;;;10.60;4.78;;;;;;;;;;6325090;28;20062;-75
2022/04/06 09:58:31;;;;;;;9.93;6.00;;;;;;;;;;6321465;28;20509;-74
2022/04/06 10:01:39;;;;;;;8.30;5.75;;;;;;;;;;6320110;28;20040;-74
2022/04/06 10:04:49;;;;;;;9.23;5.65;;;;;;;;;;6321231;28;20431;-74
2022/04/06 10:07:53;;;;;;;8.57;5.75;;;;;;;;;;6320795;28;20044;-74
2022/04/06 10:10:58;;;;;;;9.00;5.28;;;;;;;;;;6320012;28;20132;-75
2022/04/06 10:14:01;;;;;;;;;;;;;;;;;;6320439;28;20048;-75
2022/04/06 10:17:06;;;;;;;12.35;6.00;;;;;;;;;;6319582;28;20014;-74
2022/04/06 10:20:16;;;;;;;9.55;5.50;;;;;;;;;;6319032;28;20040;-75
2022/04/06 10:23:33;;;;;;;7.97;6.38;;;;;;;;;;6319397;28;20154;-75
2022/04/06 10:26:55;;;;;;;7.78;5.75;;;;;;;;;;6321082;28;20048;-74
2022/04/06 10:30:14;;;;;;;8.85;5.85;;;;;;;;;;6319255;28;20417;-75
2022/04/06 10:33:22;;;;;;;12.57;7.40;;;;;;;;;;6318572;28;20055;-75
2022/04/06 10:36:28;;;;;;;15.63;5.90;;;;;;;;;;6318400;28;20048;-75
2022/04/06 10:39:33;;;;;;;10.50;5.88;;;;;;;;;;6317510;28;20040;-75
2022/04/06 10:42:38;;;;;;;12.82;5.38;;;;;;;;;;6317007;28;20478;-76
2022/04/06 10:45:42;;;;;;;7.88;4.90;;;;;;;;;;6318121;28;20036;-75
2022/04/06 10:49:03;;;;;;;11.13;5.70;;;;;;;;;;6318855;28;20079;-76
2022/04/06 10:52:22;;;;;;;8.32;6.15;;;;;;;;;;6309678;28;20063;-77
2022/04/06 10:55:25;;;;;;;7.22;5.28;;;;;;;;;;6317382;28;20497;-76
2022/04/06 10:58:28;;;;;;;11.88;5.93;;;;;;;;;;6318546;28;20067;-77
2022/04/06 11:01:34;;;;;;;9.05;5.00;;;;;;;;;;6319738;28;20044;-76
2022/04/06 11:04:41;;;;;;;11.77;6.18;;;;;;;;;;6318645;28;20040;-76
2022/04/06 11:11:25;;;;;;;7.40;4.68;;;;;;;;;;6319386;28;20048;-77
2022/04/06 11:14:28;;;;;;;12.45;5.40;;;;;;;;;;6319411;28;20051;-77
2022/04/06 11:17:37;;;;;;;7.80;4.60;;;;;;;;;;6319222;28;20501;-76
2022/04/06 11:20:40;;;;;;;7.82;4.18;;;;;;;;;;6317812;28;20050;-76
2022/04/06 11:23:45;;;;;;;8.10;4.20;;;;;;;;;;6317703;28;20044;-77
2022/04/06 11:26:48;;;;;;;10.40;4.57;;;;;;;;;;6318292;28;20079;-77
2022/04/06 11:29:51;;;;;;;9.90;4.53;;;;;;;;;;6317169;28;20054;-74
2022/04/06 11:32:55;;;;;;;13.60;8.25;;;;;;;;;;6319166;28;20044;-75
2022/04/06 11:36:11;;;;;;;11.65;4.68;;;;;;;;;;6318997;28;20039;-74
2022/04/06 11:39:15;;;;;;;10.38;5.35;;;;;;;;;;6317393;28;20040;-77
2022/04/06 11:42:18;;;;;;;9.27;6.03;;;;;;;;;;6318732;28;20406;-76
2022/04/06 11:45:23;;;;;;;9.00;6.63;;;;;;;;;;6317019;28;20075;-75
2022/04/06 11:48:38;;;;;;;10.43;6.22;;;;;;;;;;6318403;28;20135;-75
2022/04/06 11:51:41;;;;;;;8.82;6.32;;;;;;;;;;6317809;28;20052;-75
2022/04/06 11:54:52;;;;;;;11.15;6.82;;;;;;;;;;6317091;28;20055;-76
2022/04/06 11:57:56;;;;;;;11.85;7.30;;;;;;;;;;6318605;28;20048;-76
2022/04/06 12:01:00;;;;;;;14.82;9.10;;;;;;;;;;6318271;28;20048;-76
2022/04/06 12:04:12;;;;;;;12.17;8.07;;;;;;;;;;6315762;28;20040;-75
2022/04/06 12:07:19;;;;;;;13.30;9.52;;;;;;;;;;6312774;28;20040;-75
2022/04/06 12:10:24;;;;;;;16.35;9.05;;;;;;;;;;6316826;28;20490;-77
2022/04/06 12:13:29;;;;;;;13.73;9.43;;;;;;;;;;6315321;28;20059;-77
2022/04/06 12:16:33;;;;;;;13.85;8.45;;;;;;;;;;6316052;28;20111;-76
2022/04/06 12:19:37;;;;;;;21.77;9.97;;;;;;;;;;6315861;28;20093;-77
2022/04/06 12:22:42;;;;;;;11.52;7.95;;;;;;;;;;6317813;28;20048;-76
2022/04/06 12:25:47;;;;;;;13.85;8.93;;;;;;;;;;6315479;28;20048;-76
2022/04/06 12:28:50;;;;;;;11.02;7.35;;;;;;;;;;6317393;28;20500;-76
2022/04/06 12:31:56;;;;;;;10.45;6.88;;;;;;;;;;6316455;28;20044;-76
2022/04/06 12:34:59;;;;;;;11.48;8.30;;;;;;;;;;6315807;28;20032;-77
2022/04/06 12:38:03;;;;;;;9.17;7.00;;;;;;;;;;6316092;28;20052;-77
2022/04/06 12:41:08;;;;;;;11.82;7.80;;;;;;;;;;6317207;28;20208;-76
2022/04/06 12:44:25;;;;;;;9.85;7.90;;;;;;;;;;6317194;28;20390;-78
2022/04/06 12:47:27;;;;;;;11.90;7.47;;;;;;;;;;6317172;28;20044;-77
2022/04/06 12:50:37;;;;;;;9.48;7.40;;;;;;;;;;6315498;28;20567;-76
2022/04/06 12:53:46;;;;;;;12.80;8.73;;;;;;;;;;6315681;28;20040;-77
2022/04/06 12:57:13;;;;;;;13.45;7.85;;;;;;;;;;6316119;28;20113;-77
2022/04/06 13:00:21;;;;;;;12.40;7.40;;;;;;;;;;6302271;28;20056;-77
2022/04/06 13:03:25;;;;;;;9.07;6.53;;;;;;;;;;6316847;28;20039;-76
2022/04/06 13:06:29;;;;;;;13.38;7.85;;;;;;;;;;6317223;28;20102;-77
2022/04/06 13:09:32;;;;;;;12.57;8.23;;;;;;;;;;6315064;28;20059;-77
2022/04/06 13:12:35;;;;;;;13.90;7.80;;;;;;;;;;6316817;28;20047;-76
2022/04/06 13:15:39;;;;;;;10.43;7.15;;;;;;;;;;6320000;28;20059;-77
2022/04/06 13:18:45;;;;;;;10.23;8.27;;;;;;;;;;6323820;28;20127;-75
2022/04/06 13:21:48;;;;;;;8.98;6.40;;;;;;;;;;6319417;28;20098;-76
2022/04/06 13:24:50;;;;;;;9.32;6.50;;;;;;;;;;6315070;28;20050;-75
2022/04/06 13:27:53;;;;;;;9.75;7.60;;;;;;;;;;6317196;28;20048;-75
2022/04/06 13:30:59;;;;;;;9.30;6.32;;;;;;;;;;6315945;28;20394;-76
2022/04/06 13:34:02;;;;;;;10.68;7.70;;;;;;;;;;6316399;28;20051;-76
2022/04/06 13:37:09;;;;;;;10.82;6.53;;;;;;;;;;6316135;28;20403;-76
2022/04/06 13:40:13;;;;;;;8.85;6.35;;;;;;;;;;6315939;28;20078;-75
2022/04/06 13:43:17;;;;;;;10.45;6.43;;;;;;;;;;6315072;28;20131;-76
2022/04/06 13:46:21;;;;;;;10.23;7.10;;;;;;;;;;6316664;28;20040;-77
2022/04/06 13:49:24;;;;;;;10.35;7.05;;;;;;;;;;6316565;28;20055;-75
2022/04/06 13:52:29;;;;;;;10.77;6.43;;;;;;;;;;6315765;28;20090;-73
2022/04/06 13:55:31;;;;;;;19.27;14.57;;;;;;;;;;6314869;28;20119;-73
2022/04/06 13:58:34;;;;;;;17.48;12.38;;;;;;;;;;6316772;28;20051;-74
2022/04/06 14:01:42;;;;;;;14.18;7.55;;;;;;;;;;6314973;28;20127;-74
2022/04/06 14:04:45;;;;;;;11.18;6.85;;;;;;;;;;6316689;28;20048;-75
2022/04/06 14:07:48;;;;;;;10.35;6.50;;;;;;;;;;6316213;28;20486;-75
2022/04/06 14:10:51;;;;;;;16.13;7.40;;;;;;;;;;6316916;28;20044;-75
2022/04/06 14:13:54;;;;;;;9.15;6.30;;;;;;;;;;6319071;28;20052;-74
2022/04/06 14:16:58;;;;;;;8.70;6.63;;;;;;;;;;6319454;28;20055;-75
2022/04/06 14:20:07;;;;;;;8.68;6.15;;;;;;;;;;6321235;28;20123;-74
2022/04/06 14:23:10;;;;;;;8.25;5.63;;;;;;;;;;6320030;28;20442;-74
2022/04/06 14:26:22;;;;;;;10.00;6.28;;;;;;;;;;6320666;28;20051;-74
2022/04/06 14:29:25;;;;;;;7.22;5.18;;;;;;;;;;6320777;28;20048;-75
2022/04/06 14:32:29;;;;;;;8.00;6.13;;;;;;;;;;6320940;28;20119;-75
2022/04/06 14:35:33;;;;;;;;;;;;;;;;;;6320274;28;20403;-75
2022/04/06 14:38:36;;;;;;;8.38;5.25;;;;;;;;;;6320530;28;19953;-74
2022/04/06 14:41:39;;;;;;;9.60;5.28;;;;;;;;;;6319512;28;20417;-75
2022/04/06 14:44:42;;;;;;;8.65;6.03;;;;;;;;;;6319654;28;20040;-74
2022/04/06 14:47:49;;;;;;;11.77;5.57;;;;;;;;;;6320528;28;20440;-75
2022/04/06 14:50:52;;;;;;;9.10;5.20;;;;;;;;;;6317456;28;20122;-76
2022/04/06 14:53:58;;;;;;;8.25;5.72;;;;;;;;;;6317328;28;20036;-75
2022/04/06 14:57:03;;;;;;;10.35;6.03;;;;;;;;;;6318493;28;20470;-76
2022/04/06 15:00:07;;;;;;;9.57;5.43;;;;;;;;;;6320314;28;20056;-74
2022/04/06 15:03:14;;;;;;;8.35;5.03;;;;;;;;;;6318862;28;20156;-74
2022/04/06 15:06:17;;;;;;;10.88;4.72;;;;;;;;;;6317477;28;20455;-75
2022/04/06 15:09:21;;;;;;;7.40;4.80;;;;;;;;;;6316881;28;20040;-75
2022/04/06 15:12:27;;;;;;;8.63;5.65;;;;;;;;;;6318067;28;20101;-75
2022/04/06 15:15:30;;;;;;;12.30;5.53;;;;;;;;;;6316743;28;20039;-75
2022/04/06 15:18:34;;;;;;;12.50;5.43;;;;;;;;;;6318309;28;20044;-75
2022/04/06 15:21:39;;;;;;;8.05;5.50;;;;;;;;;;6316299;28;20051;-75
2022/04/06 15:24:42;;;;;;;9.65;5.55;;;;;;;;;;6315970;28;20048;-77
2022/04/06 15:27:45;;;;;;;9.63;5.68;;;;;;;;;;6315097;28;20431;-75
2022/04/06 15:30:48;;;;;;;9.80;5.75;;;;;;;;;;6316594;28;20589;-74
2022/04/06 15:33:53;;;;;;;9.93;5.90;;;;;;;;;;6316551;28;20131;-74
2022/04/06 15:40:18;;;;;;;9.88;5.32;;;;;;;;;;6316413;28;20048;-75
2022/04/06 15:43:21;;;;;;;9.23;5.75;;;;;;;;;;6318128;28;20059;-75
2022/04/06 15:46:24;;;;;;;11.13;5.40;;;;;;;;;;6318398;28;20040;-75
2022/04/06 15:49:32;;;;;;;9.18;5.53;;;;;;;;;;6317714;28;20060;-74
2022/04/06 15:52:35;;;;;;;10.27;5.90;;;;;;;;;;6319400;28;20040;-75
2022/04/06 15:55:38;;;;;;;12.60;6.40;;;;;;;;;;6318410;28;20040;-76
2022/04/06 15:58:43;;;;;;;12.55;6.32;;;;;;;;;;6318284;28;20406;-75
2022/04/06 16:01:49;;;;;;;11.50;6.68;;;;;;;;;;6316794;28;20397;-74
2022/04/06 16:04:53;;;;;;;10.98;6.60;;;;;;;;;;6316510;28;20053;-74
2022/04/06 16:07:57;;;;;;;13.68;6.22;;;;;;;;;;6317147;28;20441;-75
2022/04/06 16:10:59;;;;;;;14.55;5.40;;;;;;;;;;6317512;28;20044;-74
2022/04/06 16:14:02;;;;;;;9.70;5.70;;;;;;;;;;6317797;28;20048;-75
2022/04/06 16:17:08;;;;;;;13.30;6.78;;;;;;;;;;6316823;28;20293;-75
2022/04/06 16:20:12;;;;;;;13.45;7.05;;;;;;;;;;6317556;28;20040;-75
2022/04/06 16:23:15;;;;;;;13.05;6.60;;;;;;;;;;6316299;28;20040;-72
2022/04/06 16:26:18;;;;;;;12.98;6.28;;;;;;;;;;6316490;28;20513;-73
2022/04/06 16:29:22;;;;;;;11.40;6.25;;;;;;;;;;6317660;28;20055;-74
2022/04/06 16:32:26;;;;;;;11.95;6.07;;;;;;;;;;6317140;28;20044;-74
2022/04/06 16:35:30;;;;;;;11.00;6.47;;;;;;;;;;6316517;28;20135;-75
2022/04/06 16:38:33;;;;;;;13.32;7.10;;;;;;;;;;6316717;28;20043;-75
2022/04/06 16:41:36;;;;;;;12.60;6.35;;;;;;;;;;6318689;28;20040;-73
2022/04/06 16:44:40;;;;;;;12.48;6.60;;;;;;;;;;6317815;28;20048;-74
2022/04/06 16:47:43;;;;;;;10.77;5.75;;;;;;;;;;6317653;28;20123;-73
2022/04/06 16:54:07;;;;;;;14.27;6.40;;;;;;;;;;6315293;28;20048;-73
2022/04/06 16:57:10;;;;;;;15.82;5.70;;;;;;;;;;6315975;28;20093;-73
2022/04/06 17:00:17;;;;;;;12.57;6.03;;;;;;;;;;6317791;28;20169;-74
2022/04/06 17:03:21;;;;;;;18.60;6.10;;;;;;;;;;6315684;28;20063;-74
2022/04/06 17:06:27;;;;;;;15.43;6.85;;;;;;;;;;6315797;28;20040;-74
2022/04/06 17:09:30;;;;;;;13.15;6.47;;;;;;;;;;6315785;28;20040;-74
2022/04/06 17:12:35;;;;;;;;;;;;;;;;;;6317664;28;20402;-74
2022/04/06 17:15:39;;;;;;;12.15;6.18;;;;;;;;;;6316573;28;20018;-74
2022/04/06 17:18:46;;;;;;;10.25;5.78;;;;;;;;;;6316307;28;20173;-75
2022/04/06 17:21:51;;;;;;;11.38;5.63;;;;;;;;;;6316162;28;20047;-75
2022/04/06 17:24:56;;;;;;;11.85;5.60;;;;;;;;;;6315264;28;20044;-76
2022/04/06 17:28:00;;;;;;;9.40;5.50;;;;;;;;;;6316328;28;20048;-73
2022/04/06 17:31:03;;;;;;;59.40;35.00;;;;;;;;;;6317248;28;20051;-74
2022/04/06 17:34:07;;;;;;;15.57;6.97;;;;;;;;;;6316689;28;20406;-76
2022/04/06 17:37:11;;;;;;;10.52;4.90;;;;;;;;;;6316885;28;20135;-74
2022/04/06 17:40:15;;;;;;;10.85;5.53;;;;;;;;;;6316510;28;20052;-73
2022/04/06 17:43:18;;;;;;;8.90;5.53;;;;;;;;;;6317565;28;20064;-75
2022/04/06 17:46:22;;;;;;;11.15;6.00;;;;;;;;;;6317668;28;20093;-74
2022/04/06 17:49:26;;;;;;;12.05;5.43;;;;;;;;;;6319112;28;20093;-76
2022/04/06 17:52:33;;;;;;;38.67;26.30;;;;;;;;;;6322313;28;20047;-73
2022/04/06 17:55:39;;;;;;;22.38;13.23;;;;;;;;;;6321029;28;20048;-75
2022/04/06 17:58:43;;;;;;;10.23;5.95;;;;;;;;;;6322036;28;20487;-75
2022/04/06 18:01:46;;;;;;;13.80;5.53;;;;;;;;;;6320548;28;20402;-76
2022/04/06 18:04:51;;;;;;;13.67;5.80;;;;;;;;;;6319634;28;20044;-75
2022/04/06 18:07:55;;;;;;;18.65;6.07;;;;;;;;;;6319674;28;20064;-75
2022/04/06 18:14:23;;;;;;;28.42;6.88;;;;;;;;;;6321203;28;20127;-75
2022/04/06 18:17:27;;;;;;;19.63;6.65;;;;;;;;;;6319108;28;20048;-76
2022/04/06 18:20:31;;;;;;;29.00;6.13;;;;;;;;;;6319464;28;20047;-75
2022/04/06 18:23:36;;;;;;;15.67;5.97;;;;;;;;;;6319908;28;20048;-75
2022/04/06 18:26:39;;;;;;;12.40;5.10;;;;;;;;;;6320742;28;20236;-75
2022/04/06 18:29:42;;;;;;;20.65;6.10;;;;;;;;;;6319118;28;20291;-74
2022/04/06 18:32:46;;;;;;;11.05;5.00;;;;;;;;;;6320804;28;20051;-76
2022/04/06 18:35:50;;;;;;;13.05;4.97;;;;;;;;;;6320210;28;20044;-75
2022/04/06 18:38:55;;;;;;;10.98;5.05;;;;;;;;;;6318428;28;20051;-74
2022/04/06 18:41:59;;;;;;;14.25;5.03;;;;;;;;;;6318405;28;20134;-76
2022/04/06 18:45:02;;;;;;;11.75;5.32;;;;;;;;;;6318460;28;20048;-75